KGAG

Gage Airport

Gage, Oklahoma, USA
METAR KGAG 192253Z AUTO 32008KT 10SM SCT055 29/16 A2992 RMK AO2 SLP104 T02890161
Observed Flight Rules
Aug-19 @ 22:53 UTC (14 minutes ago) Visual Flight Rules
Wind Visibility Clouds
320° at 8 knots 10 miles
  • Scattered at 5,500' AGL
Temperatures Readings
Current 29°C / 84°F
Dewpoint 16°C / 61°F
Humidity 45%
Altimeter 29.92" Hg
Pressure 1010.4 hPa
Elevation 668
METAR KGAG 192253Z AUTO 32008KT 10SM SCT055 29/16 A2992 RMK AO2 SLP104 T02890161
Observed Flight Rules
Aug-19 @ 22:53 UTC
(14 minutes ago)
VFR
Wind Visibility
320° at 8 knots 10 miles
Clouds
  • Scattered at 5,500' AGL
Temperature Dewpoint
29°C / 84°F 16°C / 61°F
Humidity Altimeter Pressure
45% 29.92" Hg 1010.4 hPa